TAF KJST
KJST 270530Z 2706/2806 28015G26KT P6SM -SHSN BKN015 OVC025 TEMPO 2706/2708 4SM -SHSN FM271400 28015G26KT P6SM BKN025 FM272200 26008KT P6SM BKN100=
METAR KJST
WC KJST
WS KJST
WV KJST